sensor_id;sensor_type;location;lat;lon;timestamp;P1;durP1;ratioP1;P2;durP2;ratioP2
57730;SDS011;43570;47.476;19.040;2023-03-05T00:00:49;15.95;;;12.52;;
57730;SDS011;43570;47.476;19.040;2023-03-05T00:03:15;16.27;;;12.98;;
57730;SDS011;43570;47.476;19.040;2023-03-05T00:05:40;16.12;;;12.52;;
57730;SDS011;43570;47.476;19.040;2023-03-05T00:08:06;16.48;;;13.27;;
57730;SDS011;43570;47.476;19.040;2023-03-05T00:10:31;17.90;;;14.38;;
57730;SDS011;43570;47.476;19.040;2023-03-05T00:12:56;17.58;;;13.20;;
57730;SDS011;43570;47.476;19.040;2023-03-05T00:15:22;16.12;;;12.60;;
57730;SDS011;43570;47.476;19.040;2023-03-05T00:17:47;17.25;;;13.82;;
57730;SDS011;43570;47.476;19.040;2023-03-05T00:20:13;16.92;;;12.20;;
57730;SDS011;43570;47.476;19.040;2023-03-05T00:22:38;18.00;;;12.93;;
57730;SDS011;43570;47.476;19.040;2023-03-05T00:25:04;19.12;;;13.38;;
57730;SDS011;43570;47.476;19.040;2023-03-05T00:27:30;18.98;;;13.48;;
57730;SDS011;43570;47.476;19.040;2023-03-05T00:29:55;15.95;;;13.57;;
57730;SDS011;43570;47.476;19.040;2023-03-05T00:32:21;17.60;;;12.77;;
57730;SDS011;43570;47.476;19.040;2023-03-05T00:34:46;17.80;;;13.50;;
57730;SDS011;43570;47.476;19.040;2023-03-05T00:37:13;17.65;;;12.88;;
57730;SDS011;43570;47.476;19.040;2023-03-05T00:39:39;16.65;;;13.38;;
57730;SDS011;43570;47.476;19.040;2023-03-05T00:42:04;19.62;;;13.32;;
57730;SDS011;43570;47.476;19.040;2023-03-05T00:44:30;18.48;;;13.20;;
57730;SDS011;43570;47.476;19.040;2023-03-05T00:46:56;18.80;;;13.18;;
57730;SDS011;43570;47.476;19.040;2023-03-05T00:49:21;16.08;;;12.18;;
57730;SDS011;43570;47.476;19.040;2023-03-05T00:51:46;15.55;;;12.88;;
57730;SDS011;43570;47.476;19.040;2023-03-05T00:54:12;16.67;;;12.18;;
57730;SDS011;43570;47.476;19.040;2023-03-05T00:56:37;19.12;;;13.32;;
57730;SDS011;43570;47.476;19.040;2023-03-05T00:59:03;17.70;;;12.57;;
57730;SDS011;43570;47.476;19.040;2023-03-05T01:01:28;15.65;;;12.73;;
57730;SDS011;43570;47.476;19.040;2023-03-05T01:03:53;16.50;;;12.52;;
57730;SDS011;43570;47.476;19.040;2023-03-05T01:06:21;15.73;;;12.43;;
57730;SDS011;43570;47.476;19.040;2023-03-05T01:08:47;15.60;;;11.95;;
57730;SDS011;43570;47.476;19.040;2023-03-05T01:11:12;17.60;;;11.82;;
57730;SDS011;43570;47.476;19.040;2023-03-05T01:13:38;15.98;;;12.32;;
57730;SDS011;43570;47.476;19.040;2023-03-05T01:16:03;16.37;;;12.73;;
57730;SDS011;43570;47.476;19.040;2023-03-05T01:18:29;17.42;;;12.80;;
57730;SDS011;43570;47.476;19.040;2023-03-05T01:20:54;16.67;;;12.85;;
57730;SDS011;43570;47.476;19.040;2023-03-05T01:23:20;16.08;;;11.98;;
57730;SDS011;43570;47.476;19.040;2023-03-05T01:25:51;14.57;;;11.57;;
57730;SDS011;43570;47.476;19.040;2023-03-05T01:28:18;16.15;;;11.52;;
57730;SDS011;43570;47.476;19.040;2023-03-05T01:30:43;15.20;;;12.15;;
57730;SDS011;43570;47.476;19.040;2023-03-05T01:33:09;15.32;;;11.90;;
57730;SDS011;43570;47.476;19.040;2023-03-05T01:35:34;16.27;;;11.73;;
57730;SDS011;43570;47.476;19.040;2023-03-05T01:38:00;15.50;;;10.95;;
57730;SDS011;43570;47.476;19.040;2023-03-05T01:40:27;17.70;;;11.48;;
57730;SDS011;43570;47.476;19.040;2023-03-05T01:43:39;16.65;;;12.07;;
57730;SDS011;43570;47.476;19.040;2023-03-05T01:48:40;16.35;;;12.05;;
57730;SDS011;43570;47.476;19.040;2023-03-05T01:51:07;16.10;;;11.52;;
57730;SDS011;43570;47.476;19.040;2023-03-05T01:53:32;17.85;;;12.27;;
57730;SDS011;43570;47.476;19.040;2023-03-05T01:55:57;16.85;;;12.05;;
57730;SDS011;43570;47.476;19.040;2023-03-05T01:58:23;15.07;;;11.75;;
57730;SDS011;43570;47.476;19.040;2023-03-05T02:00:49;17.75;;;12.37;;
57730;SDS011;43570;47.476;19.040;2023-03-05T02:03:17;16.83;;;11.70;;
57730;SDS011;43570;47.476;19.040;2023-03-05T02:05:43;17.52;;;12.07;;
57730;SDS011;43570;47.476;19.040;2023-03-05T02:08:10;16.83;;;12.48;;
57730;SDS011;43570;47.476;19.040;2023-03-05T02:10:41;16.20;;;12.40;;
57730;SDS011;43570;47.476;19.040;2023-03-05T02:13:09;16.25;;;11.85;;
57730;SDS011;43570;47.476;19.040;2023-03-05T02:15:37;16.83;;;11.63;;
57730;SDS011;43570;47.476;19.040;2023-03-05T02:18:02;17.83;;;12.32;;
57730;SDS011;43570;47.476;19.040;2023-03-05T02:20:30;14.65;;;11.95;;
57730;SDS011;43570;47.476;19.040;2023-03-05T02:23:12;15.75;;;12.13;;
57730;SDS011;43570;47.476;19.040;2023-03-05T02:25:39;16.85;;;11.82;;
57730;SDS011;43570;47.476;19.040;2023-03-05T02:28:15;16.23;;;11.68;;
57730;SDS011;43570;47.476;19.040;2023-03-05T02:30:44;15.45;;;11.07;;
57730;SDS011;43570;47.476;19.040;2023-03-05T02:33:09;16.35;;;12.35;;
57730;SDS011;43570;47.476;19.040;2023-03-05T02:35:35;15.15;;;11.93;;
57730;SDS011;43570;47.476;19.040;2023-03-05T02:38:00;14.80;;;11.55;;
57730;SDS011;43570;47.476;19.040;2023-03-05T02:40:26;15.88;;;11.98;;
57730;SDS011;43570;47.476;19.040;2023-03-05T02:42:51;14.60;;;11.52;;
57730;SDS011;43570;47.476;19.040;2023-03-05T02:45:17;17.65;;;12.37;;
57730;SDS011;43570;47.476;19.040;2023-03-05T02:47:42;16.90;;;12.23;;
57730;SDS011;43570;47.476;19.040;2023-03-05T02:50:08;16.70;;;11.65;;
57730;SDS011;43570;47.476;19.040;2023-03-05T02:52:35;16.67;;;11.70;;
57730;SDS011;43570;47.476;19.040;2023-03-05T02:55:01;15.52;;;10.98;;
57730;SDS011;43570;47.476;19.040;2023-03-05T02:57:26;16.35;;;11.85;;
57730;SDS011;43570;47.476;19.040;2023-03-05T02:59:52;17.30;;;10.95;;
57730;SDS011;43570;47.476;19.040;2023-03-05T03:02:17;16.45;;;12.10;;
57730;SDS011;43570;47.476;19.040;2023-03-05T03:04:43;17.92;;;11.93;;
57730;SDS011;43570;47.476;19.040;2023-03-05T03:07:12;15.38;;;12.02;;
57730;SDS011;43570;47.476;19.040;2023-03-05T03:09:38;16.55;;;12.32;;
57730;SDS011;43570;47.476;19.040;2023-03-05T03:12:04;17.60;;;12.32;;
57730;SDS011;43570;47.476;19.040;2023-03-05T03:14:31;15.57;;;11.82;;
57730;SDS011;43570;47.476;19.040;2023-03-05T03:16:57;16.62;;;11.63;;
57730;SDS011;43570;47.476;19.040;2023-03-05T03:19:23;20.17;;;11.93;;
57730;SDS011;43570;47.476;19.040;2023-03-05T03:21:48;16.58;;;12.15;;
57730;SDS011;43570;47.476;19.040;2023-03-05T03:24:14;16.20;;;11.70;;
57730;SDS011;43570;47.476;19.040;2023-03-05T03:26:39;17.67;;;12.20;;
57730;SDS011;43570;47.476;19.040;2023-03-05T03:29:05;16.33;;;11.55;;
57730;SDS011;43570;47.476;19.040;2023-03-05T03:31:30;17.10;;;11.40;;
57730;SDS011;43570;47.476;19.040;2023-03-05T03:33:56;16.05;;;11.38;;
57730;SDS011;43570;47.476;19.040;2023-03-05T03:36:21;14.95;;;11.45;;
57730;SDS011;43570;47.476;19.040;2023-03-05T03:38:46;17.45;;;11.10;;
57730;SDS011;43570;47.476;19.040;2023-03-05T03:41:12;15.93;;;11.12;;
57730;SDS011;43570;47.476;19.040;2023-03-05T03:43:37;16.75;;;11.48;;
57730;SDS011;43570;47.476;19.040;2023-03-05T03:46:04;17.40;;;11.10;;
57730;SDS011;43570;47.476;19.040;2023-03-05T03:48:30;17.62;;;11.05;;
57730;SDS011;43570;47.476;19.040;2023-03-05T03:50:56;15.10;;;11.40;;
57730;SDS011;43570;47.476;19.040;2023-03-05T03:53:21;16.33;;;11.35;;
57730;SDS011;43570;47.476;19.040;2023-03-05T03:55:47;17.48;;;10.85;;
57730;SDS011;43570;47.476;19.040;2023-03-05T03:58:12;16.62;;;11.05;;
57730;SDS011;43570;47.476;19.040;2023-03-05T04:00:38;16.30;;;11.10;;
57730;SDS011;43570;47.476;19.040;2023-03-05T04:03:04;16.17;;;10.57;;
57730;SDS011;43570;47.476;19.040;2023-03-05T04:05:29;15.80;;;10.98;;
57730;SDS011;43570;47.476;19.040;2023-03-05T04:07:55;15.90;;;11.00;;
57730;SDS011;43570;47.476;19.040;2023-03-05T04:10:22;13.65;;;10.45;;
57730;SDS011;43570;47.476;19.040;2023-03-05T04:12:48;14.00;;;10.52;;
57730;SDS011;43570;47.476;19.040;2023-03-05T04:15:14;15.57;;;10.52;;
57730;SDS011;43570;47.476;19.040;2023-03-05T04:17:39;16.12;;;10.27;;
57730;SDS011;43570;47.476;19.040;2023-03-05T04:20:05;13.07;;;10.25;;
57730;SDS011;43570;47.476;19.040;2023-03-05T04:22:32;15.23;;;10.75;;
57730;SDS011;43570;47.476;19.040;2023-03-05T04:24:58;15.10;;;10.43;;
57730;SDS011;43570;47.476;19.040;2023-03-05T04:27:23;15.32;;;10.82;;
57730;SDS011;43570;47.476;19.040;2023-03-05T04:29:49;15.07;;;10.57;;
57730;SDS011;43570;47.476;19.040;2023-03-05T04:32:14;15.13;;;10.57;;
57730;SDS011;43570;47.476;19.040;2023-03-05T04:34:46;16.70;;;10.93;;
57730;SDS011;43570;47.476;19.040;2023-03-05T04:37:12;14.20;;;10.68;;
57730;SDS011;43570;47.476;19.040;2023-03-05T04:39:37;16.77;;;10.65;;
57730;SDS011;43570;47.476;19.040;2023-03-05T04:42:03;15.95;;;10.85;;
57730;SDS011;43570;47.476;19.040;2023-03-05T04:44:28;16.67;;;10.45;;
57730;SDS011;43570;47.476;19.040;2023-03-05T04:46:53;14.98;;;10.35;;
57730;SDS011;43570;47.476;19.040;2023-03-05T04:49:19;15.55;;;11.35;;
57730;SDS011;43570;47.476;19.040;2023-03-05T04:51:45;14.45;;;11.10;;
57730;SDS011;43570;47.476;19.040;2023-03-05T04:54:10;14.23;;;11.02;;
57730;SDS011;43570;47.476;19.040;2023-03-05T04:56:36;19.65;;;11.55;;
57730;SDS011;43570;47.476;19.040;2023-03-05T04:59:01;15.50;;;10.57;;
57730;SDS011;43570;47.476;19.040;2023-03-05T05:01:26;13.43;;;10.65;;
57730;SDS011;43570;47.476;19.040;2023-03-05T05:03:52;16.17;;;10.93;;
57730;SDS011;43570;47.476;19.040;2023-03-05T05:06:17;15.07;;;10.75;;
57730;SDS011;43570;47.476;19.040;2023-03-05T05:08:43;16.30;;;10.77;;
57730;SDS011;43570;47.476;19.040;2023-03-05T05:11:10;16.85;;;10.95;;
57730;SDS011;43570;47.476;19.040;2023-03-05T05:13:37;15.18;;;10.38;;
57730;SDS011;43570;47.476;19.040;2023-03-05T05:16:05;14.38;;;10.07;;
57730;SDS011;43570;47.476;19.040;2023-03-05T05:18:30;15.57;;;10.68;;
57730;SDS011;43570;47.476;19.040;2023-03-05T05:20:56;14.80;;;10.73;;
57730;SDS011;43570;47.476;19.040;2023-03-05T05:23:22;15.45;;;10.98;;
57730;SDS011;43570;47.476;19.040;2023-03-05T05:26:01;15.57;;;10.93;;
57730;SDS011;43570;47.476;19.040;2023-03-05T05:28:28;14.30;;;10.70;;
57730;SDS011;43570;47.476;19.040;2023-03-05T05:30:53;14.32;;;11.00;;
57730;SDS011;43570;47.476;19.040;2023-03-05T05:33:19;17.58;;;11.70;;
57730;SDS011;43570;47.476;19.040;2023-03-05T05:35:45;17.27;;;11.18;;
57730;SDS011;43570;47.476;19.040;2023-03-05T05:38:10;17.50;;;11.73;;
57730;SDS011;43570;47.476;19.040;2023-03-05T05:40:36;17.60;;;11.57;;
57730;SDS011;43570;47.476;19.040;2023-03-05T05:43:01;18.20;;;11.88;;
57730;SDS011;43570;47.476;19.040;2023-03-05T05:45:27;19.37;;;11.18;;
57730;SDS011;43570;47.476;19.040;2023-03-05T05:47:52;15.55;;;11.12;;
57730;SDS011;43570;47.476;19.040;2023-03-05T05:50:18;16.58;;;11.23;;
57730;SDS011;43570;47.476;19.040;2023-03-05T05:52:44;16.52;;;10.88;;
57730;SDS011;43570;47.476;19.040;2023-03-05T05:55:10;14.68;;;10.48;;
57730;SDS011;43570;47.476;19.040;2023-03-05T05:57:36;16.65;;;11.18;;
57730;SDS011;43570;47.476;19.040;2023-03-05T06:00:02;16.70;;;12.07;;
57730;SDS011;43570;47.476;19.040;2023-03-05T06:02:29;18.15;;;11.68;;
57730;SDS011;43570;47.476;19.040;2023-03-05T06:04:55;17.45;;;12.02;;
57730;SDS011;43570;47.476;19.040;2023-03-05T06:07:20;15.73;;;11.52;;
57730;SDS011;43570;47.476;19.040;2023-03-05T06:09:46;16.42;;;11.88;;
57730;SDS011;43570;47.476;19.040;2023-03-05T06:12:11;19.67;;;12.88;;
57730;SDS011;43570;47.476;19.040;2023-03-05T06:14:37;16.15;;;11.55;;
57730;SDS011;43570;47.476;19.040;2023-03-05T06:17:02;17.20;;;12.20;;
57730;SDS011;43570;47.476;19.040;2023-03-05T06:19:27;20.15;;;13.35;;
57730;SDS011;43570;47.476;19.040;2023-03-05T06:21:53;18.48;;;13.00;;
57730;SDS011;43570;47.476;19.040;2023-03-05T06:24:18;17.45;;;12.10;;
57730;SDS011;43570;47.476;19.040;2023-03-05T06:26:44;20.10;;;12.95;;
57730;SDS011;43570;47.476;19.040;2023-03-05T06:29:10;18.70;;;13.57;;
57730;SDS011;43570;47.476;19.040;2023-03-05T06:31:36;17.10;;;12.60;;
57730;SDS011;43570;47.476;19.040;2023-03-05T06:34:02;19.10;;;13.13;;
57730;SDS011;43570;47.476;19.040;2023-03-05T06:36:28;19.20;;;13.05;;
57730;SDS011;43570;47.476;19.040;2023-03-05T06:38:56;18.08;;;12.30;;
57730;SDS011;43570;47.476;19.040;2023-03-05T06:41:23;19.40;;;12.85;;
57730;SDS011;43570;47.476;19.040;2023-03-05T06:43:50;18.15;;;12.73;;
57730;SDS011;43570;47.476;19.040;2023-03-05T06:46:20;17.73;;;12.10;;
57730;SDS011;43570;47.476;19.040;2023-03-05T06:48:54;18.87;;;13.02;;
57730;SDS011;43570;47.476;19.040;2023-03-05T06:51:22;17.45;;;12.40;;
57730;SDS011;43570;47.476;19.040;2023-03-05T06:54:09;17.33;;;12.82;;
57730;SDS011;43570;47.476;19.040;2023-03-05T06:56:36;17.10;;;12.23;;
57730;SDS011;43570;47.476;19.040;2023-03-05T06:59:03;16.60;;;12.52;;
57730;SDS011;43570;47.476;19.040;2023-03-05T07:01:29;17.00;;;12.18;;
57730;SDS011;43570;47.476;19.040;2023-03-05T07:03:55;20.02;;;13.70;;
57730;SDS011;43570;47.476;19.040;2023-03-05T07:06:23;17.50;;;13.25;;
57730;SDS011;43570;47.476;19.040;2023-03-05T07:08:49;16.37;;;12.23;;
57730;SDS011;43570;47.476;19.040;2023-03-05T07:11:16;17.05;;;11.88;;
57730;SDS011;43570;47.476;19.040;2023-03-05T07:13:43;16.77;;;12.07;;
57730;SDS011;43570;47.476;19.040;2023-03-05T07:16:21;15.18;;;12.15;;
57730;SDS011;43570;47.476;19.040;2023-03-05T07:18:48;17.33;;;12.75;;
57730;SDS011;43570;47.476;19.040;2023-03-05T07:21:15;17.55;;;12.50;;
57730;SDS011;43570;47.476;19.040;2023-03-05T07:23:42;17.35;;;12.07;;
57730;SDS011;43570;47.476;19.040;2023-03-05T07:26:09;17.27;;;12.37;;
57730;SDS011;43570;47.476;19.040;2023-03-05T07:28:34;18.95;;;13.80;;
57730;SDS011;43570;47.476;19.040;2023-03-05T07:31:04;18.98;;;12.90;;
57730;SDS011;43570;47.476;19.040;2023-03-05T07:33:31;18.52;;;13.10;;
57730;SDS011;43570;47.476;19.040;2023-03-05T07:35:58;18.67;;;12.02;;
57730;SDS011;43570;47.476;19.040;2023-03-05T07:38:25;16.73;;;11.80;;
57730;SDS011;43570;47.476;19.040;2023-03-05T07:40:50;16.17;;;11.98;;
57730;SDS011;43570;47.476;19.040;2023-03-05T07:43:16;16.05;;;11.55;;
57730;SDS011;43570;47.476;19.040;2023-03-05T07:45:41;17.05;;;12.30;;
57730;SDS011;43570;47.476;19.040;2023-03-05T07:48:08;16.83;;;12.75;;
57730;SDS011;43570;47.476;19.040;2023-03-05T07:50:40;17.87;;;11.73;;
57730;SDS011;43570;47.476;19.040;2023-03-05T07:53:06;16.45;;;11.98;;
57730;SDS011;43570;47.476;19.040;2023-03-05T07:55:31;16.60;;;11.60;;
57730;SDS011;43570;47.476;19.040;2023-03-05T07:57:57;16.37;;;11.68;;
57730;SDS011;43570;47.476;19.040;2023-03-05T08:00:22;14.73;;;10.73;;
57730;SDS011;43570;47.476;19.040;2023-03-05T08:02:48;15.65;;;11.23;;
57730;SDS011;43570;47.476;19.040;2023-03-05T08:05:14;16.23;;;11.70;;
57730;SDS011;43570;47.476;19.040;2023-03-05T08:07:40;18.80;;;12.65;;
57730;SDS011;43570;47.476;19.040;2023-03-05T08:10:05;15.13;;;11.63;;
57730;SDS011;43570;47.476;19.040;2023-03-05T08:12:31;14.25;;;10.68;;
57730;SDS011;43570;47.476;19.040;2023-03-05T08:14:57;14.80;;;10.63;;
57730;SDS011;43570;47.476;19.040;2023-03-05T08:17:22;16.83;;;10.82;;
57730;SDS011;43570;47.476;19.040;2023-03-05T08:19:48;14.60;;;10.38;;
57730;SDS011;43570;47.476;19.040;2023-03-05T08:22:13;14.38;;;10.73;;
57730;SDS011;43570;47.476;19.040;2023-03-05T08:24:40;18.92;;;11.73;;
57730;SDS011;43570;47.476;19.040;2023-03-05T08:27:06;15.52;;;11.43;;
57730;SDS011;43570;47.476;19.040;2023-03-05T08:29:31;14.65;;;11.52;;
57730;SDS011;43570;47.476;19.040;2023-03-05T08:31:57;17.10;;;11.75;;
57730;SDS011;43570;47.476;19.040;2023-03-05T08:34:22;14.52;;;11.25;;
57730;SDS011;43570;47.476;19.040;2023-03-05T08:36:48;14.68;;;11.50;;
57730;SDS011;43570;47.476;19.040;2023-03-05T08:39:13;16.45;;;11.38;;
57730;SDS011;43570;47.476;19.040;2023-03-05T08:41:39;13.45;;;10.55;;
57730;SDS011;43570;47.476;19.040;2023-03-05T08:44:04;13.65;;;10.82;;
57730;SDS011;43570;47.476;19.040;2023-03-05T08:46:30;15.80;;;11.15;;
57730;SDS011;43570;47.476;19.040;2023-03-05T08:48:55;15.63;;;10.48;;
57730;SDS011;43570;47.476;19.040;2023-03-05T08:51:21;14.73;;;10.43;;
57730;SDS011;43570;47.476;19.040;2023-03-05T08:53:52;13.55;;;9.55;;
57730;SDS011;43570;47.476;19.040;2023-03-05T08:56:18;14.77;;;10.35;;
57730;SDS011;43570;47.476;19.040;2023-03-05T08:58:43;14.43;;;10.50;;
57730;SDS011;43570;47.476;19.040;2023-03-05T09:01:10;13.95;;;10.50;;
57730;SDS011;43570;47.476;19.040;2023-03-05T09:03:36;12.85;;;9.75;;
57730;SDS011;43570;47.476;19.040;2023-03-05T09:06:04;14.50;;;10.50;;
57730;SDS011;43570;47.476;19.040;2023-03-05T09:08:31;15.25;;;10.30;;
57730;SDS011;43570;47.476;19.040;2023-03-05T09:10:56;13.02;;;9.73;;
57730;SDS011;43570;47.476;19.040;2023-03-05T09:13:22;13.18;;;9.43;;
57730;SDS011;43570;47.476;19.040;2023-03-05T09:15:58;15.40;;;9.88;;
57730;SDS011;43570;47.476;19.040;2023-03-05T09:18:25;13.32;;;10.00;;
57730;SDS011;43570;47.476;19.040;2023-03-05T09:20:51;13.55;;;9.45;;
57730;SDS011;43570;47.476;19.040;2023-03-05T09:23:18;14.23;;;9.48;;
57730;SDS011;43570;47.476;19.040;2023-03-05T09:25:43;15.43;;;10.15;;
57730;SDS011;43570;47.476;19.040;2023-03-05T09:28:09;15.13;;;9.65;;
57730;SDS011;43570;47.476;19.040;2023-03-05T09:30:34;16.35;;;10.60;;
57730;SDS011;43570;47.476;19.040;2023-03-05T09:33:01;16.70;;;11.27;;
57730;SDS011;43570;47.476;19.040;2023-03-05T09:35:27;17.50;;;11.43;;
57730;SDS011;43570;47.476;19.040;2023-03-05T09:37:52;16.15;;;11.60;;
57730;SDS011;43570;47.476;19.040;2023-03-05T09:40:19;16.00;;;11.48;;
57730;SDS011;43570;47.476;19.040;2023-03-05T09:42:49;16.00;;;11.85;;
57730;SDS011;43570;47.476;19.040;2023-03-05T09:45:34;16.48;;;11.77;;
57730;SDS011;43570;47.476;19.040;2023-03-05T09:50:53;16.15;;;11.75;;
57730;SDS011;43570;47.476;19.040;2023-03-05T09:56:04;14.43;;;11.38;;
57730;SDS011;43570;47.476;19.040;2023-03-05T09:58:40;15.38;;;11.27;;
57730;SDS011;43570;47.476;19.040;2023-03-05T10:01:12;15.43;;;11.45;;
57730;SDS011;43570;47.476;19.040;2023-03-05T10:03:43;17.73;;;12.35;;
57730;SDS011;43570;47.476;19.040;2023-03-05T10:11:40;16.27;;;12.27;;
57730;SDS011;43570;47.476;19.040;2023-03-05T10:14:41;17.00;;;12.63;;
57730;SDS011;43570;47.476;19.040;2023-03-05T10:20:02;16.73;;;12.55;;
57730;SDS011;43570;47.476;19.040;2023-03-05T10:22:33;16.02;;;12.52;;
57730;SDS011;43570;47.476;19.040;2023-03-05T10:25:25;15.43;;;11.85;;
57730;SDS011;43570;47.476;19.040;2023-03-05T10:28:15;14.50;;;10.63;;
57730;SDS011;43570;47.476;19.040;2023-03-05T10:33:56;14.73;;;11.07;;
57730;SDS011;43570;47.476;19.040;2023-03-05T10:45:14;14.68;;;11.50;;
57730;SDS011;43570;47.476;19.040;2023-03-05T10:51:11;15.20;;;11.60;;
57730;SDS011;43570;47.476;19.040;2023-03-05T10:56:14;13.95;;;11.05;;
57730;SDS011;43570;47.476;19.040;2023-03-05T10:58:39;15.85;;;10.63;;
57730;SDS011;43570;47.476;19.040;2023-03-05T11:01:17;13.85;;;10.23;;
57730;SDS011;43570;47.476;19.040;2023-03-05T11:03:58;16.08;;;11.80;;
57730;SDS011;43570;47.476;19.040;2023-03-05T11:06:28;14.25;;;10.27;;
57730;SDS011;43570;47.476;19.040;2023-03-05T11:09:29;14.73;;;10.35;;
57730;SDS011;43570;47.476;19.040;2023-03-05T11:14:29;14.80;;;10.38;;
57730;SDS011;43570;47.476;19.040;2023-03-05T11:16:57;15.85;;;10.00;;
57730;SDS011;43570;47.476;19.040;2023-03-05T11:19:31;13.62;;;10.75;;
57730;SDS011;43570;47.476;19.040;2023-03-05T11:22:04;13.68;;;10.90;;
57730;SDS011;43570;47.476;19.040;2023-03-05T11:24:30;13.27;;;10.18;;
57730;SDS011;43570;47.476;19.040;2023-03-05T11:26:57;14.95;;;11.23;;
57730;SDS011;43570;47.476;19.040;2023-03-05T11:29:30;14.73;;;10.98;;
57730;SDS011;43570;47.476;19.040;2023-03-05T11:32:16;14.98;;;11.48;;
57730;SDS011;43570;47.476;19.040;2023-03-05T11:34:46;14.60;;;11.10;;
57730;SDS011;43570;47.476;19.040;2023-03-05T11:37:21;15.10;;;11.68;;
57730;SDS011;43570;47.476;19.040;2023-03-05T11:42:37;14.25;;;10.90;;
57730;SDS011;43570;47.476;19.040;2023-03-05T11:45:04;15.18;;;11.20;;
57730;SDS011;43570;47.476;19.040;2023-03-05T11:50:21;14.48;;;11.02;;
57730;SDS011;43570;47.476;19.040;2023-03-05T11:53:10;12.55;;;9.65;;
57730;SDS011;43570;47.476;19.040;2023-03-05T12:01:16;11.85;;;9.88;;
57730;SDS011;43570;47.476;19.040;2023-03-05T12:03:45;12.95;;;9.95;;
57730;SDS011;43570;47.476;19.040;2023-03-05T12:08:37;11.82;;;10.00;;
57730;SDS011;43570;47.476;19.040;2023-03-05T12:11:08;12.88;;;9.80;;
57730;SDS011;43570;47.476;19.040;2023-03-05T12:14:01;13.00;;;9.98;;
57730;SDS011;43570;47.476;19.040;2023-03-05T12:16:37;11.55;;;9.05;;
57730;SDS011;43570;47.476;19.040;2023-03-05T12:19:37;11.63;;;9.00;;
57730;SDS011;43570;47.476;19.040;2023-03-05T12:22:03;11.27;;;8.18;;
57730;SDS011;43570;47.476;19.040;2023-03-05T12:24:31;12.43;;;8.18;;
57730;SDS011;43570;47.476;19.040;2023-03-05T12:31:52;10.45;;;7.87;;
57730;SDS011;43570;47.476;19.040;2023-03-05T12:34:34;10.90;;;7.72;;
57730;SDS011;43570;47.476;19.040;2023-03-05T12:37:11;10.18;;;7.50;;
57730;SDS011;43570;47.476;19.040;2023-03-05T12:42:54;9.68;;;7.50;;
57730;SDS011;43570;47.476;19.040;2023-03-05T12:52:55;8.98;;;6.95;;
57730;SDS011;43570;47.476;19.040;2023-03-05T12:57:54;9.93;;;7.43;;
57730;SDS011;43570;47.476;19.040;2023-03-05T13:03:13;9.77;;;6.90;;
57730;SDS011;43570;47.476;19.040;2023-03-05T13:05:53;10.73;;;7.28;;
57730;SDS011;43570;47.476;19.040;2023-03-05T13:08:24;9.63;;;7.30;;
57730;SDS011;43570;47.476;19.040;2023-03-05T13:13:16;10.50;;;6.60;;
57730;SDS011;43570;47.476;19.040;2023-03-05T13:15:46;11.60;;;7.70;;
57730;SDS011;43570;47.476;19.040;2023-03-05T13:18:22;9.30;;;7.40;;
57730;SDS011;43570;47.476;19.040;2023-03-05T13:21:05;10.70;;;7.85;;
57730;SDS011;43570;47.476;19.040;2023-03-05T13:23:35;12.48;;;7.97;;
57730;SDS011;43570;47.476;19.040;2023-03-05T13:28:43;10.88;;;7.50;;
57730;SDS011;43570;47.476;19.040;2023-03-05T13:31:30;11.05;;;7.37;;
57730;SDS011;43570;47.476;19.040;2023-03-05T13:34:06;12.32;;;7.90;;
57730;SDS011;43570;47.476;19.040;2023-03-05T13:37:00;9.82;;;7.60;;
57730;SDS011;43570;47.476;19.040;2023-03-05T13:39:39;9.98;;;7.57;;
57730;SDS011;43570;47.476;19.040;2023-03-05T13:42:41;11.20;;;8.43;;
57730;SDS011;43570;47.476;19.040;2023-03-05T13:45:01;11.75;;;7.60;;
57730;SDS011;43570;47.476;19.040;2023-03-05T13:47:40;10.85;;;7.62;;
57730;SDS011;43570;47.476;19.040;2023-03-05T13:50:39;10.75;;;7.40;;
57730;SDS011;43570;47.476;19.040;2023-03-05T13:53:14;10.48;;;7.97;;
57730;SDS011;43570;47.476;19.040;2023-03-05T13:55:43;12.05;;;8.27;;
57730;SDS011;43570;47.476;19.040;2023-03-05T14:03:39;10.95;;;8.13;;
57730;SDS011;43570;47.476;19.040;2023-03-05T14:06:07;13.62;;;9.38;;
57730;SDS011;43570;47.476;19.040;2023-03-05T14:08:34;12.32;;;8.85;;
57730;SDS011;43570;47.476;19.040;2023-03-05T14:11:10;13.65;;;9.75;;
57730;SDS011;43570;47.476;19.040;2023-03-05T14:13:39;11.65;;;8.75;;
57730;SDS011;43570;47.476;19.040;2023-03-05T14:16:07;11.02;;;8.48;;
57730;SDS011;43570;47.476;19.040;2023-03-05T14:18:37;14.57;;;8.90;;
57730;SDS011;43570;47.476;19.040;2023-03-05T14:21:05;12.65;;;8.93;;
57730;SDS011;43570;47.476;19.040;2023-03-05T14:24:09;11.73;;;8.93;;
57730;SDS011;43570;47.476;19.040;2023-03-05T14:29:21;11.93;;;8.55;;
57730;SDS011;43570;47.476;19.040;2023-03-05T14:31:54;11.25;;;8.70;;
57730;SDS011;43570;47.476;19.040;2023-03-05T14:34:32;13.25;;;9.10;;
57730;SDS011;43570;47.476;19.040;2023-03-05T14:37:05;11.68;;;8.93;;
57730;SDS011;43570;47.476;19.040;2023-03-05T14:39:43;12.18;;;8.85;;
57730;SDS011;43570;47.476;19.040;2023-03-05T14:42:26;11.75;;;8.68;;
57730;SDS011;43570;47.476;19.040;2023-03-05T14:44:58;15.63;;;8.27;;
57730;SDS011;43570;47.476;19.040;2023-03-05T14:47:28;12.23;;;8.15;;
57730;SDS011;43570;47.476;19.040;2023-03-05T14:49:54;12.90;;;8.90;;
57730;SDS011;43570;47.476;19.040;2023-03-05T14:52:21;11.38;;;8.23;;
57730;SDS011;43570;47.476;19.040;2023-03-05T14:54:48;11.20;;;8.15;;
57730;SDS011;43570;47.476;19.040;2023-03-05T14:57:16;12.63;;;8.07;;
57730;SDS011;43570;47.476;19.040;2023-03-05T14:59:45;10.63;;;7.90;;
57730;SDS011;43570;47.476;19.040;2023-03-05T15:02:12;12.80;;;7.55;;
57730;SDS011;43570;47.476;19.040;2023-03-05T15:04:42;12.02;;;8.02;;
57730;SDS011;43570;47.476;19.040;2023-03-05T15:07:25;13.07;;;8.40;;
57730;SDS011;43570;47.476;19.040;2023-03-05T15:09:56;11.00;;;8.18;;
57730;SDS011;43570;47.476;19.040;2023-03-05T15:12:22;10.73;;;8.50;;
57730;SDS011;43570;47.476;19.040;2023-03-05T15:14:49;9.80;;;6.97;;
57730;SDS011;43570;47.476;19.040;2023-03-05T15:17:18;11.05;;;6.82;;
57730;SDS011;43570;47.476;19.040;2023-03-05T15:19:48;12.27;;;7.82;;
57730;SDS011;43570;47.476;19.040;2023-03-05T15:22:14;11.90;;;7.93;;
57730;SDS011;43570;47.476;19.040;2023-03-05T15:24:41;9.57;;;6.75;;
57730;SDS011;43570;47.476;19.040;2023-03-05T15:27:07;12.85;;;8.27;;
57730;SDS011;43570;47.476;19.040;2023-03-05T15:29:33;10.23;;;7.15;;
57730;SDS011;43570;47.476;19.040;2023-03-05T15:32:00;10.00;;;7.53;;
57730;SDS011;43570;47.476;19.040;2023-03-05T15:34:27;11.60;;;7.20;;
57730;SDS011;43570;47.476;19.040;2023-03-05T15:36:53;9.77;;;7.18;;
57730;SDS011;43570;47.476;19.040;2023-03-05T15:39:20;11.50;;;7.70;;
57730;SDS011;43570;47.476;19.040;2023-03-05T15:41:49;11.20;;;7.32;;
57730;SDS011;43570;47.476;19.040;2023-03-05T15:44:16;11.48;;;7.45;;